In Rescue
 
Open Full Screen Window  High Contrast Mode
Wind Gusting 14 knots
08
March 01, 2024 4:33 PM EST
Weather Information
Wind Direction
  170 °
Wind Speed
  08 kt (9 mph)
Wind Gust
  14 kt (16 mph)
Altimeter
30.16 in
Visibility
10 SM
Temperature
05° C
41° F
Dewpoint
-11° C
12° F
Humidity
30%
Sky Condition
Overcast @ 10,000 ft
Scattered @ 6,500 ft
Scattered @ 5,000 ft
VFR

METAR KJYM 012133Z AUTO 17008G14KT 10SM SCT050 SCT065 OVC100 05/M11 A3016 RMK AO2 T00511114

FAA Disclaimer: The data displayed is for advisory purposes only and is not to be used for flight planning or operations.